Time;durP1;ratioP1;P1;durP2;ratioP2;P2;SDS_P1;SDS_P2;PMS_P1;PMS_P2;Temp;Humidity;BMP_temperature;BMP_pressure;BME280_temperature;BME280_humidity;BME280_pressure;Samples;Min_cycle;Max_cycle;Signal;HPM_P1;HPM_P2
2023/04/21 00:00:00;;;;;;;;;;;;;;;6.78;100.00;95322.41;10568955;28;2169;-73
2023/04/21 00:05:03;;;;;;;;;;;;;;;6.65;100.00;95309.50;10567381;28;2039;-72
2023/04/21 00:10:06;;;;;;;;;;;;;;;6.69;100.00;95305.28;10575084;27;2075;-72
2023/04/21 00:15:09;;;;;;;;;;;;;;;6.66;100.00;95291.63;10569308;28;2111;-71
2023/04/21 00:20:13;;;;;;;;;;;;;;;6.66;100.00;95292.41;10566290;27;2007;-71
2023/04/21 00:25:16;;;;;;;;;;;;;;;6.75;100.00;95290.06;10568109;28;2040;-72
2023/04/21 00:30:19;;;;;;;;;;;;;;;6.70;100.00;95290.06;10572084;27;2329;-72
2023/04/21 00:35:22;;;;;;;;;;;;;;;6.62;100.00;95288.69;10568125;27;2007;-72
2023/04/21 00:40:25;;;;;;;;;;;;;;;6.67;100.00;95293.22;10576094;27;2064;-75
2023/04/21 00:45:28;;;;;;;;;;;;;;;6.68;100.00;95279.63;10568530;28;2101;-74
2023/04/21 00:50:31;;;;;;;;;;;;;;;6.60;100.00;95277.44;10564582;27;2211;-72
2023/04/21 00:55:34;;;;;;;;;;;;;;;6.44;100.00;95276.56;10563197;28;2038;-71
2023/04/21 01:00:36;;;;;;;;;;;;;;;6.57;100.00;95277.97;10554523;27;2057;-72
2023/04/21 01:05:40;;;;;;;;;;;;;;;6.65;100.00;95263.31;10568393;27;2071;-72
2023/04/21 01:10:43;;;;;;;;;;;;;;;6.62;100.00;95271.84;10586224;27;2048;-71
2023/04/21 01:15:46;;;;;;;;;;;;;;;6.55;100.00;95258.72;10565189;28;2069;-70
2023/04/21 01:20:48;;;;;;;;;;;;;;;6.52;100.00;95253.09;10568277;27;2135;-70
2023/04/21 01:25:52;;;;;;;;;;;;;;;6.59;100.00;95267.03;10553153;28;2134;-71
2023/04/21 01:30:55;;;;;;;;;;;;;;;6.61;100.00;95262.22;10558800;28;2074;-72
2023/04/21 01:35:59;;;;;;;;;;;;;;;6.57;100.00;95261.16;10563838;28;1893;-71
2023/04/21 01:41:02;;;;;;;;;;;;;;;6.48;100.00;95268.84;10566269;27;2070;-72
2023/04/21 01:46:04;;;;;;;;;;;;;;;6.62;100.00;95271.84;10567073;28;1999;-72
2023/04/21 01:51:07;;;;;;;;;;;;;;;6.65;100.00;95269.47;10565563;28;2257;-72
2023/04/21 01:56:09;;;;;;;;;;;;;;;6.59;100.00;95269.69;10565147;28;1943;-71
2023/04/21 02:01:12;;;;;;;;;;;;;;;6.57;100.00;95274.50;10558001;28;1948;-71
2023/04/21 02:06:25;;;;;;;;;;;;;;;6.64;100.00;95267.06;10561765;28;2134;-71
2023/04/21 02:11:27;;;;;;;;;;;;;;;6.63;100.00;95268.13;10567132;28;2055;-72
2023/04/21 02:16:30;;;;;;;;;;;;;;;6.44;100.00;95273.91;10568722;27;2055;-72
2023/04/21 02:21:32;;;;;;;;;;;;;;;6.37;100.00;95267.19;10567125;27;2078;-71
2023/04/21 02:26:36;;;;;;;;;;;;;;;6.43;100.00;95256.28;10566127;28;2501;-71
2023/04/21 02:31:38;;;;;;;;;;;;;;;6.40;100.00;95255.97;10563269;28;2103;-73
2023/04/21 02:36:59;;;;;;;;;;;;;;;6.42;100.00;95243.97;10564416;27;2083;-71
2023/04/21 02:42:01;;;;;;;;;;;;;;;6.39;100.00;95247.19;10568222;28;2114;-71
2023/04/21 02:47:04;;;;;;;;;;;;;;;6.41;100.00;95245.03;10561044;28;2082;-71
2023/04/21 02:52:06;;;;;;;;;;;;;;;6.30;100.00;95239.91;10563340;28;2047;-71
2023/04/21 02:57:09;;;;;;;;;;;;;;;6.33;100.00;95240.22;10562032;28;1936;-72
2023/04/21 03:02:11;;;;;;;;;;;;;;;6.27;100.00;95230.56;10569270;28;2063;-71
2023/04/21 03:07:14;;;;;;;;;;;;;;;6.30;100.00;95235.41;10571716;28;2070;-72
2023/04/21 03:12:17;;;;;;;;;;;;;;;6.16;100.00;95228.91;10574323;27;2151;-72
2023/04/21 03:17:20;;;;;;;;;;;;;;;6.21;100.00;95239.59;10575457;28;2190;-71
2023/04/21 03:22:22;;;;;;;;;;;;;;;6.29;100.00;95232.97;10570425;27;2086;-71
2023/04/21 03:27:25;;;;;;;;;;;;;;;6.31;100.00;95246.88;10571642;27;2111;-72
2023/04/21 03:32:27;;;;;;;;;;;;;;;6.43;100.00;95250.16;10570612;28;2027;-71
2023/04/21 03:37:30;;;;;;;;;;;;;;;6.43;100.00;95240.25;10566175;27;2163;-72
2023/04/21 03:42:32;;;;;;;;;;;;;;;6.50;100.00;95235.50;10572982;27;2135;-71
2023/04/21 03:47:36;;;;;;;;;;;;;;;6.48;100.00;95248.28;10573439;28;2441;-72
2023/04/21 03:52:38;;;;;;;;;;;;;;;6.44;100.00;95247.22;10566897;28;2022;-72
2023/04/21 03:57:41;;;;;;;;;;;;;;;6.40;100.00;95237.31;10577675;28;2050;-72
2023/04/21 04:02:43;;;;;;;;;;;;;;;6.21;100.00;95235.06;10568737;28;2213;-74
2023/04/21 04:07:46;;;;;;;;;;;;;;;6.15;100.00;95232.63;10568768;28;2016;-74
2023/04/21 04:12:48;;;;;;;;;;;;;;;6.18;100.00;95237.47;10564015;27;1983;-76
2023/04/21 04:17:50;;;;;;;;;;;;;;;6.05;100.00;95254.75;10571078;28;2046;-73
2023/04/21 04:22:53;;;;;;;;;;;;;;;6.08;100.00;95264.09;10569192;28;1983;-72
2023/04/21 04:27:56;;;;;;;;;;;;;;;6.05;100.00;95264.59;10576532;27;2023;-71
2023/04/21 04:32:58;;;;;;;;;;;;;;;6.08;100.00;95256.88;10566003;28;2070;-75
2023/04/21 04:38:13;;;;;;;;;;;;;;;5.96;100.00;95250.94;10550600;28;2173;-74
2023/04/21 04:43:16;;;;;;;;;;;;;;;5.84;100.00;95264.41;10573914;27;2187;-72
2023/04/21 04:48:18;;;;;;;;;;;;;;;5.91;100.00;95265.03;10563082;28;2364;-70
2023/04/21 04:53:27;;;;;;;;;;;;;;;5.96;100.00;95269.59;10549002;28;2097;-71
2023/04/21 04:58:30;;;;;;;;;;;;;;;6.02;100.00;95262.44;10566410;27;2099;-74
2023/04/21 05:03:33;;;;;;;;;;;;;;;6.05;100.00;95268.09;10561545;28;2124;-72
2023/04/21 05:08:35;;;;;;;;;;;;;;;6.22;100.00;95268.69;10570640;28;2108;-71
2023/04/21 05:13:38;;;;;;;;;;;;;;;6.33;100.00;95288.25;10552613;28;2133;-77
2023/04/21 05:18:41;;;;;;;;;;;;;;;6.52;100.00;95277.13;10572308;27;2067;-77
2023/04/21 05:23:44;;;;;;;;;;;;;;;6.62;100.00;95285.22;10562467;28;2115;-76
2023/04/21 05:28:47;;;;;;;;;;;;;;;6.66;100.00;95286.28;10566893;27;2091;-72
2023/04/21 05:33:50;;;;;;;;;;;;;;;6.83;100.00;95286.09;10567216;27;2023;-73
2023/04/21 05:38:53;;;;;;;;;;;;;;;6.88;100.00;95278.09;10564537;28;2110;-73
2023/04/21 05:43:56;;;;;;;;;;;;;;;6.97;100.00;95277.31;10548113;27;2098;-72
2023/04/21 05:48:58;;;;;;;;;;;;;;;7.02;100.00;95263.19;10569606;28;1995;-72
2023/04/21 05:54:01;;;;;;;;;;;;;;;7.11;100.00;95266.13;10570074;27;2067;-72
2023/04/21 05:59:05;;;;;;;;;;;;;;;7.23;100.00;95272.03;10561686;28;2000;-72
2023/04/21 06:04:08;;;;;;;;;;;;;;;7.55;100.00;95255.75;10559797;28;2074;-71
2023/04/21 06:09:10;;;;;;;;;;;;;;;8.09;100.00;95255.22;10565137;28;2146;-71
2023/04/21 06:14:13;;;;;;;;;;;;;;;8.51;100.00;95268.25;10567005;27;1957;-70
2023/04/21 06:19:17;;;;;;;;;;;;;;;10.03;100.00;95263.06;10562627;27;2078;-72
2023/04/21 06:24:23;;;;;;;;;;;;;;;10.77;100.00;95243.00;10553124;28;2070;-73
2023/04/21 06:29:27;;;;;;;;;;;;;;;10.03;100.00;95239.72;10557818;27;2176;-72
2023/04/21 06:34:30;;;;;;;;;;;;;;;9.86;100.00;95233.97;10565365;28;2061;-74
2023/04/21 06:39:33;;;;;;;;;;;;;;;10.91;100.00;95239.59;10554131;27;2054;-73
2023/04/21 06:44:37;;;;;;;;;;;;;;;10.92;100.00;95222.38;10549920;28;2081;-73
2023/04/21 06:49:40;;;;;;;;;;;;;;;10.65;100.00;95237.22;10554980;28;1992;-73
2023/04/21 06:54:42;;;;;;;;;;;;;;;10.62;100.00;95228.91;10542574;28;2019;-72
2023/04/21 06:59:44;;;;;;;;;;;;;;;10.49;100.00;95233.91;10551707;28;2076;-73
2023/04/21 07:04:47;;;;;;;;;;;;;;;11.42;100.00;95225.47;10549364;28;2082;-73
2023/04/21 07:09:50;;;;;;;;;;;;;;;12.11;100.00;95223.84;10545074;28;2056;-73
2023/04/21 07:14:52;;;;;;;;;;;;;;;11.53;100.00;95221.53;10548329;28;2065;-73
2023/04/21 07:19:54;;;;;;;;;;;;;;;12.10;100.00;95216.84;10548821;28;2054;-73
2023/04/21 07:24:57;;;;;;;;;;;;;;;11.42;100.00;95215.50;10547288;28;2103;-74
2023/04/21 07:30:00;;;;;;;;;;;;;;;10.67;100.00;95216.22;10563406;27;2042;-74
2023/04/21 07:35:02;;;;;;;;;;;;;;;10.50;100.00;95215.91;10547435;28;1961;-74
2023/04/21 07:40:05;;;;;;;;;;;;;;;10.68;100.00;95215.13;10546338;28;2199;-75
2023/04/21 07:45:09;;;;;;;;;;;;;;;11.05;100.00;95219.78;10547884;28;2023;-72
2023/04/21 07:50:11;;;;;;;;;;;;;;;11.76;100.00;95217.91;10558345;28;2075;-75
2023/04/21 07:55:14;;;;;;;;;;;;;;;11.68;100.00;95223.97;10555106;28;1999;-72
2023/04/21 08:00:17;;;;;;;;;;;;;;;11.36;100.00;95228.22;10554890;28;1991;-75
2023/04/21 08:05:20;;;;;;;;;;;;;;;11.66;100.00;95231.56;10558413;28;2110;-74
2023/04/21 08:10:23;;;;;;;;;;;;;;;12.27;100.00;95221.66;10559492;27;2011;-76
2023/04/21 08:15:26;;;;;;;;;;;;;;;12.54;100.00;95223.59;10554969;27;2112;-76
2023/04/21 08:20:28;;;;;;;;;;;;;;;12.97;100.00;95227.56;10553156;28;2006;-76
2023/04/21 08:25:32;;;;;;;;;;;;;;;12.91;100.00;95228.75;10557712;27;2066;-77
2023/04/21 08:30:34;;;;;;;;;;;;;;;14.32;100.00;95227.72;10555308;28;2029;-76
2023/04/21 08:35:37;;;;;;;;;;;;;;;13.78;100.00;95229.59;10553504;28;1960;-78
2023/04/21 08:40:45;;;;;;;;;;;;;;;14.24;100.00;95218.41;10558935;28;2127;-78
2023/04/21 08:45:47;;;;;;;;;;;;;;;14.27;100.00;95215.13;10535372;27;2039;-76
2023/04/21 08:50:50;;;;;;;;;;;;;;;14.00;100.00;95221.47;10555985;27;2122;-74
2023/04/21 08:55:53;;;;;;;;;;;;;;;12.94;100.00;95217.38;10554587;28;2198;-76
2023/04/21 09:01:12;;;;;;;;;;;;;;;13.63;100.00;95217.25;10550369;27;2165;-76
2023/04/21 09:06:15;;;;;;;;;;;;;;;14.06;100.00;95216.75;10552327;28;2055;-75
2023/04/21 09:11:18;;;;;;;;;;;;;;;13.62;100.00;95215.66;10561530;27;2017;-77
2023/04/21 09:16:21;;;;;;;;;;;;;;;13.09;100.00;95212.75;10552433;28;1954;-77
2023/04/21 09:21:26;;;;;;;;;;;;;;;13.23;100.00;95202.75;10549695;27;2066;-75
2023/04/21 09:26:29;;;;;;;;;;;;;;;13.34;100.00;95203.34;10549716;27;2027;-75
2023/04/21 09:31:32;;;;;;;;;;;;;;;13.40;100.00;95207.50;10549914;27;1934;-75
2023/04/21 09:36:36;;;;;;;;;;;;;;;12.76;100.00;95204.81;10550117;28;2020;-76
2023/04/21 09:41:40;;;;;;;;;;;;;;;13.88;100.00;95206.94;10536870;28;2043;-75
2023/04/21 09:46:42;;;;;;;;;;;;;;;13.60;100.00;95214.34;10550007;27;2011;-74
2023/04/21 09:51:46;;;;;;;;;;;;;;;13.42;100.00;95206.13;10549353;28;2075;-73
2023/04/21 09:56:53;;;;;;;;;;;;;;;13.41;100.00;95204.50;10554325;27;2062;-74
2023/04/21 10:01:58;;;;;;;;;;;;;;;12.58;100.00;95203.00;10547552;28;2083;-73
2023/04/21 10:07:01;;;;;;;;;;;;;;;13.12;100.00;95212.16;10547905;28;1975;-76
2023/04/21 10:12:04;;;;;;;;;;;;;;;13.59;100.00;95193.84;10550943;28;2079;-73
2023/04/21 10:17:14;;;;;;;;;;;;;;;13.55;100.00;95193.69;10554338;28;2056;-76
2023/04/21 10:22:20;;;;;;;;;;;;;;;13.47;100.00;95181.69;10555489;27;2109;-77
2023/04/21 10:27:24;;;;;;;;;;;;;;;13.28;100.00;95183.75;10558542;28;2058;-75
2023/04/21 10:32:27;;;;;;;;;;;;;;;13.44;100.00;95187.72;10548799;28;2081;-76
2023/04/21 10:37:29;;;;;;;;;;;;;;;14.05;100.00;95182.69;10550323;28;2086;-74
2023/04/21 10:42:33;;;;;;;;;;;;;;;14.07;100.00;95186.72;10549305;28;1953;-73
2023/04/21 10:47:36;;;;;;;;;;;;;;;14.18;100.00;95172.91;10553931;28;1969;-75
2023/04/21 10:52:39;;;;;;;;;;;;;;;14.19;100.00;95177.25;10552885;28;2064;-75
2023/04/21 10:57:42;;;;;;;;;;;;;;;14.70;100.00;95173.16;10558157;28;2039;-75
2023/04/21 11:02:45;;;;;;;;;;;;;;;14.21;100.00;95162.28;10553165;28;2019;-75
2023/04/21 11:07:47;;;;;;;;;;;;;;;13.80;100.00;95162.53;10553895;28;2162;-76
2023/04/21 11:12:50;;;;;;;;;;;;;;;14.26;100.00;95155.97;10544383;28;1991;-75
2023/04/21 11:17:52;;;;;;;;;;;;;;;14.60;100.00;95150.69;10548483;28;2050;-73
2023/04/21 11:22:55;;;;;;;;;;;;;;;14.55;100.00;95145.41;10564129;28;2030;-74
2023/04/21 11:27:58;;;;;;;;;;;;;;;14.69;100.00;95139.09;10560207;27;2206;-75
2023/04/21 11:33:01;;;;;;;;;;;;;;;15.00;100.00;95134.38;10561060;28;2046;-76
2023/04/21 11:38:04;;;;;;;;;;;;;;;14.59;100.00;95138.28;10559841;28;2239;-73
2023/04/21 11:43:06;;;;;;;;;;;;;;;14.65;100.00;95127.31;10560822;28;1952;-75
2023/04/21 11:48:09;;;;;;;;;;;;;;;14.91;100.00;95130.88;10557921;28;2107;-74
2023/04/21 11:53:11;;;;;;;;;;;;;;;15.34;100.00;95138.22;10556673;28;2055;-78
2023/04/21 11:58:15;;;;;;;;;;;;;;;15.17;100.00;95130.09;10557776;27;2043;-74
2023/04/21 12:03:17;;;;;;;;;;;;;;;15.07;100.00;95123.88;10557352;28;2011;-76
2023/04/21 12:08:20;;;;;;;;;;;;;;;15.05;100.00;95134.22;10557351;27;1980;-75
2023/04/21 12:13:23;;;;;;;;;;;;;;;15.27;100.00;95133.28;10553735;27;2129;-75
2023/04/21 12:18:26;;;;;;;;;;;;;;;15.31;100.00;95128.03;10549968;27;1987;-74
2023/04/21 12:23:30;;;;;;;;;;;;;;;15.57;100.00;95134.22;10553501;27;1991;-75
2023/04/21 12:28:39;;;;;;;;;;;;;;;15.47;100.00;95131.06;10551238;27;1996;-76
2023/04/21 12:33:41;;;;;;;;;;;;;;;15.62;100.00;95128.66;10551965;27;2257;-75
2023/04/21 12:38:44;;;;;;;;;;;;;;;15.75;100.00;95137.72;10559148;28;2161;-77
2023/04/21 12:43:46;;;;;;;;;;;;;;;16.09;100.00;95123.28;10549821;27;2070;-72
2023/04/21 12:48:51;;;;;;;;;;;;;;;16.12;100.00;95117.22;10554331;28;2171;-74
2023/04/21 12:53:54;;;;;;;;;;;;;;;15.96;97.97;95118.88;10553483;28;2023;-74
2023/04/21 12:58:57;;;;;;;;;;;;;;;16.23;91.75;95125.03;10557074;28;2015;-76
2023/04/21 13:03:59;;;;;;;;;;;;;;;16.30;89.23;95114.47;10557260;28;2187;-74
2023/04/21 13:09:04;;;;;;;;;;;;;;;15.94;90.85;95111.06;10557024;27;1933;-73
2023/04/21 13:14:07;;;;;;;;;;;;;;;16.34;90.58;95109.97;10555988;27;2115;-73
2023/04/21 13:19:12;;;;;;;;;;;;;;;16.68;88.71;95103.56;10551780;27;2049;-73
2023/04/21 13:24:26;;;;;;;;;;;;;;;16.74;90.79;95100.38;10555390;28;1997;-73
2023/04/21 13:29:31;;;;;;;;;;;;;;;16.87;86.34;95089.59;10559232;28;1980;-74
2023/04/21 13:34:34;;;;;;;;;;;;;;;16.80;88.13;95089.34;10549687;28;2055;-74
2023/04/21 13:39:36;;;;;;;;;;;;;;;16.94;89.16;95079.00;10549187;28;1986;-74
2023/04/21 13:44:40;;;;;;;;;;;;;;;16.93;87.51;95075.50;10552668;28;2079;-74
2023/04/21 13:49:42;;;;;;;;;;;;;;;17.35;90.70;95066.53;10556236;27;2074;-75
2023/04/21 13:54:45;;;;;;;;;;;;;;;17.24;93.57;95072.38;10559035;28;2027;-75
2023/04/21 13:59:48;;;;;;;;;;;;;;;17.36;90.77;95051.81;10554004;28;1991;-75
2023/04/21 14:04:50;;;;;;;;;;;;;;;17.43;90.48;95054.78;10552819;27;2011;-75
2023/04/21 14:09:53;;;;;;;;;;;;;;;17.32;90.05;95045.47;10552705;28;2047;-74
2023/04/21 14:14:57;;;;;;;;;;;;;;;17.66;85.18;95045.13;10557170;27;1964;-74
2023/04/21 14:19:59;;;;;;;;;;;;;;;17.77;84.11;95035.44;10554066;27;2109;-73
2023/04/21 14:25:02;;;;;;;;;;;;;;;17.69;81.84;95039.03;10553266;28;2113;-75
2023/04/21 14:30:07;;;;;;;;;;;;;;;17.99;78.81;95025.25;10551415;27;2031;-74
2023/04/21 14:35:09;;;;;;;;;;;;;;;17.90;80.32;95005.56;10552164;27;2069;-75
2023/04/21 14:40:13;;;;;;;;;;;;;;;18.18;79.56;95011.13;10552676;28;2030;-76
2023/04/21 14:45:15;;;;;;;;;;;;;;;18.03;77.00;95007.16;10555654;28;2023;-73
2023/04/21 14:50:17;;;;;;;;;;;;;;;18.02;75.70;95002.84;10548613;28;2169;-77
2023/04/21 14:55:20;;;;;;;;;;;;;;;17.98;75.85;95005.44;10554626;28;2050;-76
2023/04/21 15:00:24;;;;;;;;;;;;;;;18.40;74.74;95002.50;10566867;27;2039;-73
2023/04/21 15:05:27;;;;;;;;;;;;;;;18.43;74.07;95001.81;10563245;27;1972;-75
2023/04/21 15:10:31;;;;;;;;;;;;;;;18.40;72.38;95007.16;10568330;28;1967;-75
2023/04/21 15:15:34;;;;;;;;;;;;;;;18.15;70.20;94995.50;10565910;27;2058;-75
2023/04/21 15:20:36;;;;;;;;;;;;;;;18.29;71.41;94996.72;10565155;27;2142;-75
2023/04/21 15:25:46;;;;;;;;;;;;;;;18.25;72.21;94990.34;10571285;28;2185;-77
2023/04/21 15:30:49;;;;;;;;;;;;;;;18.25;72.53;94995.81;10579288;27;1959;-74
2023/04/21 15:35:52;;;;;;;;;;;;;;;18.11;71.62;94992.66;10579115;27;2012;-74
2023/04/21 15:40:54;;;;;;;;;;;;;;;18.03;69.68;94982.69;10577247;27;1984;-74
2023/04/21 15:46:09;;;;;;;;;;;;;;;17.88;71.05;94986.88;10574846;27;2075;-73
2023/04/21 15:51:12;;;;;;;;;;;;;;;17.96;72.35;94982.44;10580496;27;1984;-75
2023/04/21 15:56:14;;;;;;;;;;;;;;;17.76;73.68;94986.84;10576876;27;2110;-74
2023/04/21 16:01:17;;;;;;;;;;;;;;;17.63;74.16;94975.16;10575622;27;2046;-73
2023/04/21 16:06:20;;;;;;;;;;;;;;;17.45;74.05;94965.59;10573967;27;1992;-73
2023/04/21 16:11:23;;;;;;;;;;;;;;;17.44;74.73;94967.53;10567521;28;1956;-76
2023/04/21 16:16:26;;;;;;;;;;;;;;;17.54;75.16;94969.78;10571130;27;2011;-74
2023/04/21 16:21:29;;;;;;;;;;;;;;;17.51;73.73;94959.59;10568003;28;2078;-74
2023/04/21 16:26:33;;;;;;;;;;;;;;;17.38;73.71;94962.66;10562447;27;1973;-74
2023/04/21 16:31:36;;;;;;;;;;;;;;;17.18;75.47;94967.00;10567987;27;2054;-74
2023/04/21 16:36:39;;;;;;;;;;;;;;;17.14;75.16;94963.38;10566452;27;2075;-73
2023/04/21 16:41:42;;;;;;;;;;;;;;;17.12;76.13;94971.84;10569687;28;2333;-75
2023/04/21 16:46:44;;;;;;;;;;;;;;;17.09;73.60;94960.84;10571064;28;2054;-74
2023/04/21 16:51:47;;;;;;;;;;;;;;;16.93;74.41;94968.84;10576959;28;2034;-75
2023/04/21 16:56:50;;;;;;;;;;;;;;;16.81;75.55;94974.22;10571247;28;2011;-76
2023/04/21 17:01:53;;;;;;;;;;;;;;;16.69;76.85;94970.28;10564448;28;2023;-74
2023/04/21 17:06:55;;;;;;;;;;;;;;;16.54;78.58;94962.75;10548769;28;2082;-76
2023/04/21 17:11:57;;;;;;;;;;;;;;;16.46;79.77;94966.28;10547715;27;2022;-75
2023/04/21 17:17:01;;;;;;;;;;;;;;;16.33;81.58;94972.78;10566456;27;2066;-73
2023/04/21 17:22:03;;;;;;;;;;;;;;;16.20;84.74;94969.97;10568145;28;2059;-73
2023/04/21 17:27:06;;;;;;;;;;;;;;;16.04;88.22;94981.72;10568163;28;2067;-74
2023/04/21 17:32:09;;;;;;;;;;;;;;;15.92;91.78;94979.72;10568329;27;2015;-75
2023/04/21 17:37:11;;;;;;;;;;;;;;;15.92;93.17;94985.13;10565175;28;2032;-74
2023/04/21 17:42:13;;;;;;;;;;;;;;;15.84;95.07;94975.09;10569257;27;2296;-79
2023/04/21 17:47:16;;;;;;;;;;;;;;;15.79;96.41;94981.53;10542195;27;1972;-76
2023/04/21 17:52:18;;;;;;;;;;;;;;;15.61;98.96;94980.75;10565048;28;2300;-75
2023/04/21 17:57:26;;;;;;;;;;;;;;;15.46;100.00;94981.31;10565695;27;2350;-75
2023/04/21 18:02:29;;;;;;;;;;;;;;;15.31;100.00;94982.59;10566143;27;2297;-75
2023/04/21 18:07:33;;;;;;;;;;;;;;;15.02;100.00;94988.72;10562658;27;2528;-74
2023/04/21 18:12:36;;;;;;;;;;;;;;;14.90;100.00;94990.47;10560671;27;2431;-75
2023/04/21 18:17:38;;;;;;;;;;;;;;;14.77;100.00;95006.56;10562317;28;1946;-76
2023/04/21 18:22:42;;;;;;;;;;;;;;;14.70;100.00;95008.16;10560268;28;2320;-77
2023/04/21 18:27:44;;;;;;;;;;;;;;;14.60;100.00;95009.25;10560011;28;2000;-76
2023/04/21 18:32:47;;;;;;;;;;;;;;;14.26;100.00;95023.50;10559256;28;2276;-73
2023/04/21 18:37:53;;;;;;;;;;;;;;;13.86;100.00;95028.91;10544765;27;2311;-74
2023/04/21 18:42:56;;;;;;;;;;;;;;;13.64;100.00;95035.19;10571629;27;2323;-72
2023/04/21 18:48:03;;;;;;;;;;;;;;;13.69;100.00;95031.56;10559953;28;2390;-73
2023/04/21 18:53:06;;;;;;;;;;;;;;;13.42;100.00;95044.16;10560900;27;2413;-74
2023/04/21 18:58:09;;;;;;;;;;;;;;;13.13;100.00;95062.66;10562068;28;2417;-73
2023/04/21 19:03:12;;;;;;;;;;;;;;;13.18;100.00;95065.22;10566552;28;2351;-74
2023/04/21 19:08:16;;;;;;;;;;;;;;;13.16;100.00;95073.59;10567832;28;2085;-72
2023/04/21 19:13:35;;;;;;;;;;;;;;;12.82;100.00;95076.84;10560489;28;2380;-74
2023/04/21 19:18:38;;;;;;;;;;;;;;;12.69;100.00;95077.69;10561607;28;2321;-75
2023/04/21 19:23:40;;;;;;;;;;;;;;;12.80;100.00;95089.84;10563690;28;2327;-77
2023/04/21 19:28:43;;;;;;;;;;;;;;;13.03;100.00;95120.34;10562127;28;2307;-74
2023/04/21 19:33:48;;;;;;;;;;;;;;;13.11;100.00;95127.72;10566802;28;2585;-73
2023/04/21 19:38:50;;;;;;;;;;;;;;;13.09;100.00;95131.81;10564384;28;2734;-74
2023/04/21 19:43:53;;;;;;;;;;;;;;;13.12;100.00;95148.19;10566231;27;2319;-72
2023/04/21 19:48:56;;;;;;;;;;;;;;;13.04;100.00;95151.63;10570222;28;2178;-74
2023/04/21 19:53:58;;;;;;;;;;;;;;;12.90;100.00;95154.34;10566304;27;2021;-74
2023/04/21 19:59:13;;;;;;;;;;;;;;;12.76;100.00;95158.16;10574236;27;2383;-74
2023/04/21 20:04:16;;;;;;;;;;;;;;;12.66;100.00;95154.59;10576052;27;1956;-73
2023/04/21 20:09:18;;;;;;;;;;;;;;;12.51;100.00;95146.00;10566030;28;1965;-73
2023/04/21 20:14:21;;;;;;;;;;;;;;;12.43;100.00;95150.22;10575551;27;2297;-76
2023/04/21 20:19:25;;;;;;;;;;;;;;;12.20;100.00;95143.09;10568648;27;2381;-77
2023/04/21 20:24:28;;;;;;;;;;;;;;;12.09;100.00;95150.59;10569251;28;2286;-75
2023/04/21 20:29:31;;;;;;;;;;;;;;;11.90;100.00;95146.09;10569612;28;2262;-76
2023/04/21 20:34:35;;;;;;;;;;;;;;;11.70;100.00;95151.78;10572072;27;2334;-76
2023/04/21 20:39:37;;;;;;;;;;;;;;;11.54;100.00;95145.88;10574029;27;2453;-75
2023/04/21 20:44:41;;;;;;;;;;;;;;;11.38;100.00;95134.53;10570425;28;2438;-75
2023/04/21 20:49:46;;;;;;;;;;;;;;;11.29;100.00;95141.69;10571713;27;2282;-74
2023/04/21 20:54:48;;;;;;;;;;;;;;;11.21;100.00;95128.91;10570370;27;1984;-73
2023/04/21 20:59:51;;;;;;;;;;;;;;;11.08;100.00;95118.91;10571922;28;2333;-75
2023/04/21 21:04:53;;;;;;;;;;;;;;;10.96;100.00;95121.22;10569678;27;2526;-74
2023/04/21 21:09:56;;;;;;;;;;;;;;;10.92;100.00;95126.38;10567779;27;2473;-75
2023/04/21 21:14:59;;;;;;;;;;;;;;;10.92;100.00;95125.56;10568167;27;2328;-75
2023/04/21 21:20:03;;;;;;;;;;;;;;;10.74;100.00;95125.28;10568155;27;2313;-74
2023/04/21 21:25:06;;;;;;;;;;;;;;;10.63;100.00;95118.47;10561749;28;2000;-74
2023/04/21 21:30:09;;;;;;;;;;;;;;;10.58;100.00;95121.22;10550393;27;1973;-75
2023/04/21 21:35:12;;;;;;;;;;;;;;;10.48;100.00;95119.44;10567416;27;2335;-75
2023/04/21 21:40:15;;;;;;;;;;;;;;;10.49;100.00;95112.97;10572152;27;2355;-76
2023/04/21 21:45:17;;;;;;;;;;;;;;;10.45;100.00;95106.59;10568377;27;1828;-73
2023/04/21 21:50:20;;;;;;;;;;;;;;;10.33;100.00;95113.47;10571062;27;1922;-75
2023/04/21 21:55:23;;;;;;;;;;;;;;;10.22;100.00;95113.56;10564004;27;2371;-76
2023/04/21 22:00:26;;;;;;;;;;;;;;;10.16;100.00;95114.69;10566687;28;2390;-77
2023/04/21 22:05:29;;;;;;;;;;;;;;;10.05;100.00;95107.84;10566028;27;2319;-76
2023/04/21 22:10:33;;;;;;;;;;;;;;;10.11;100.00;95106.69;10565691;27;2072;-77
2023/04/21 22:15:36;;;;;;;;;;;;;;;10.28;100.00;95112.44;10566132;27;2307;-74
2023/04/21 22:20:38;;;;;;;;;;;;;;;10.15;100.00;95118.47;10560529;27;2277;-74
2023/04/21 22:25:41;;;;;;;;;;;;;;;10.03;100.00;95121.56;10563589;28;2064;-73
2023/04/21 22:30:44;;;;;;;;;;;;;;;9.90;100.00;95116.06;10563602;27;1966;-76
2023/04/21 22:35:46;;;;;;;;;;;;;;;9.73;100.00;95114.66;10557741;27;2167;-74
2023/04/21 22:40:49;;;;;;;;;;;;;;;9.67;100.00;95123.84;10560481;28;1965;-73
2023/04/21 22:45:53;;;;;;;;;;;;;;;9.58;100.00;95127.41;10546062;28;2237;-74
2023/04/21 22:50:56;;;;;;;;;;;;;;;9.57;100.00;95121.25;10565065;28;2023;-73
2023/04/21 22:55:58;;;;;;;;;;;;;;;9.48;100.00;95123.75;10558272;28;2313;-73
2023/04/21 23:01:03;;;;;;;;;;;;;;;9.55;100.00;95114.56;10557008;28;2340;-72
2023/04/21 23:06:15;;;;;;;;;;;;;;;9.43;100.00;95112.25;10567930;28;2395;-73
2023/04/21 23:11:18;;;;;;;;;;;;;;;9.52;100.00;95113.22;10565046;28;1911;-72
2023/04/21 23:16:20;;;;;;;;;;;;;;;9.43;100.00;95114.94;10570096;28;2288;-73
2023/04/21 23:21:23;;;;;;;;;;;;;;;9.37;100.00;95129.47;10573513;27;2057;-73
2023/04/21 23:26:26;;;;;;;;;;;;;;;9.27;100.00;95121.50;10567051;27;2016;-70
2023/04/21 23:31:30;;;;;;;;;;;;;;;9.27;100.00;95129.53;10576303;27;2282;-72
2023/04/21 23:36:32;;;;;;;;;;;;;;;9.18;100.00;95132.03;10561932;28;2274;-72
2023/04/21 23:41:39;;;;;;;;;;;;;;;9.18;100.00;95130.16;10571349;27;1960;-73
2023/04/21 23:46:41;;;;;;;;;;;;;;;9.05;100.00;95141.50;10567603;27;2246;-71
2023/04/21 23:51:44;;;;;;;;;;;;;;;8.97;100.00;95139.44;10567013;27;2295;-70
2023/04/21 23:56:47;;;;;;;;;;;;;;;8.82;100.00;95136.84;10567098;27;1951;-72
